| time (UTC) | temp C | wind direction | speed KPH | gust KPH | rain 1hr cm | rain 24hr cm | rain mn cm | humidity % | barometer mb |
| 20260506092515 | 13 | 180 | 9.7 | 22.5 | 0.00 | 0.00 | 0.00 | 87 | 1010.3 |
| 20260506091556 | 13 | 203 | 11.3 | 24.1 | 0.00 | 0.00 | 0.00 | 87 | 1010.3 |
| 20260506090515 | 13 | 180 | 9.7 | 22.5 | 0.00 | 0.00 | 0.00 | 86 | 1010.5 |
| 20260506085516 | 13 | 180 | 11.3 | 29.0 | 0.00 | 0.00 | 0.00 | 86 | 1010.5 |
| 20260506084535 | 13 | 203 | 11.3 | 20.9 | 0.00 | 0.00 | 0.00 | 86 | 1010.6 |
| 20260506083515 | 13 | 203 | 11.3 | 22.5 | 0.00 | 0.00 | 0.00 | 86 | 1010.8 |
| 20260506081515 | 13 | 203 | 9.7 | 20.9 | 0.00 | 0.00 | 0.00 | 85 | 1010.7 |
| 20260506080515 | 13 | 203 | 9.7 | 20.9 | 0.00 | 0.00 | 0.00 | 85 | 1010.7 |
| 20260506073515 | 13 | 203 | 12.9 | 25.7 | 0.00 | 0.00 | 0.00 | 84 | 1010.8 |
| 20260506072535 | 13 | 203 | 9.7 | 17.7 | 0.00 | 0.00 | 0.00 | 84 | 1011.0 |
| 20260506071515 | 13 | 203 | 12.9 | 29.0 | 0.00 | 0.00 | 0.00 | 84 | 1010.9 |
| 20260506070515 | 13 | 203 | 11.3 | 24.1 | 0.00 | 0.00 | 0.00 | 84 | 1011.0 |
| 20260506062515 | 13 | 203 | 11.3 | 32.2 | 0.00 | 0.00 | 0.00 | 83 | 1010.9 |
| 20260506061515 | 14 | 203 | 11.3 | 35.4 | 0.00 | 0.00 | 0.00 | 82 | 1010.9 |
| 20260506060515 | 14 | 203 | 9.7 | 20.9 | 0.00 | 0.00 | 0.00 | 82 | 1010.8 |
| 20260506050515 | 15 | 203 | 12.9 | 30.6 | 0.00 | 0.00 | 0.00 | 80 | 1011.2 |
| 20260506044535 | 15 | 203 | 12.9 | 32.2 | 0.00 | 0.00 | 0.00 | 79 | 1011.2 |
| 20260506043535 | 15 | 203 | 14.5 | 30.6 | 0.00 | 0.00 | 0.00 | 78 | 1011.3 |
| 20260506042535 | 15 | 203 | 12.9 | 25.7 | 0.00 | 0.00 | 0.00 | 77 | 1011.1 |
| 20260506041515 | 15 | 203 | 14.5 | 29.0 | 0.00 | 0.00 | 0.00 | 77 | 1011.2 |
| 20260506040517 | 15 | 225 | 14.5 | 29.0 | 0.00 | 0.00 | 0.00 | 76 | 1011.3 |
| 20260506035517 | 16 | 203 | 12.9 | 24.1 | 0.00 | 0.00 | 0.00 | 76 | 1011.2 |
| 20260506034517 | 16 | 203 | 12.9 | 30.6 | 0.00 | 0.00 | 0.00 | 75 | 1011.1 |
| 20260506033517 | 16 | 203 | 16.1 | 32.2 | 0.00 | 0.00 | 0.00 | 75 | 1011.1 |
| 20260506032517 | 16 | 203 | 12.9 | 33.8 | 0.00 | 0.00 | 0.00 | 75 | 1011.0 |
| 20260506031537 | 16 | 203 | 16.1 | 35.4 | 0.00 | 0.00 | 0.00 | 75 | 1011.0 |
| 20260506030537 | 16 | 203 | 17.7 | 35.4 | 0.00 | 0.00 | 0.00 | 74 | 1010.9 |
| 20260506025517 | 16 | 225 | 12.9 | 32.2 | 0.00 | 0.00 | 0.00 | 74 | 1011.0 |
| 20260506024517 | 16 | 203 | 17.7 | 35.4 | 0.00 | 0.00 | 0.00 | 73 | 1010.9 |
| 20260506023537 | 16 | 203 | 17.7 | 29.0 | 0.00 | 0.00 | 0.00 | 73 | 1010.9 |
| 20260506022517 | 17 | 203 | 17.7 | 45.1 | 0.00 | 0.00 | 0.00 | 72 | 1011.0 |
| 20260506021517 | 17 | 225 | 17.7 | 33.8 | 0.00 | 0.00 | 0.00 | 71 | 1011.2 |
| 20260506020517 | 17 | 203 | 17.7 | 41.8 | 0.00 | 0.00 | 0.00 | 70 | 1010.9 |
| 20260506015517 | 17 | 180 | 16.1 | 38.6 | 0.00 | 0.00 | 0.00 | 69 | 1010.9 |
| 20260506014517 | 17 | 203 | 17.7 | 33.8 | 0.00 | 0.00 | 0.00 | 69 | 1010.9 |
| 20260506013517 | 17 | 203 | 14.5 | 33.8 | 0.00 | 0.00 | 0.00 | 69 | 1010.7 |
| 20260506012517 | 17 | 203 | 16.1 | 35.4 | 0.00 | 0.00 | 0.00 | 68 | 1010.7 |
| 20260506011517 | 17 | 203 | 17.7 | 33.8 | 0.00 | 0.00 | 0.00 | 68 | 1010.6 |
| 20260506010517 | 17 | 203 | 14.5 | 38.6 | 0.00 | 0.00 | 0.00 | 67 | 1010.4 |
| 20260506005537 | 17 | 203 | 16.1 | 37.0 | 0.00 | 0.00 | 0.00 | 67 | 1010.3 |
| 20260506004537 | 17 | 225 | 19.3 | 37.0 | 0.00 | 0.00 | 0.00 | 67 | 1010.4 |
| 20260506003516 | 17 | 203 | 17.7 | 41.8 | 0.00 | 0.00 | 0.00 | 66 | 1010.3 |
| 20260506002517 | 17 | 225 | 14.5 | 33.8 | 0.00 | 0.00 | 0.00 | 65 | 1010.1 |
| 20260506001537 | 17 | 225 | 14.5 | 27.4 | 0.00 | 0.00 | 0.00 | 66 | 1010.0 |
| 20260506000516 | 17 | 203 | 12.9 | 27.4 | 0.00 | 0.00 | 0.00 | 65 | 1009.9 |
| 20260505235516 | 17 | 203 | 16.1 | 33.8 | 0.00 | 0.00 | 0.00 | 65 | 1010.0 |
| 20260505234536 | 18 | 203 | 16.1 | 35.4 | 0.00 | 0.00 | 0.00 | 64 | 1009.8 |
| 20260505233517 | 18 | 180 | 14.5 | 32.2 | 0.00 | 0.00 | 0.00 | 63 | 1009.5 |
| 20260505232517 | 18 | 203 | 17.7 | 38.6 | 0.00 | 0.00 | 0.00 | 62 | 1009.5 |
| 20260505231516 | 18 | 203 | 16.1 | 30.6 | 0.00 | 0.00 | 0.00 | 62 | 1009.4 |
| 20260505230517 | 18 | 203 | 17.7 | 38.6 | 0.00 | 0.00 | 0.00 | 61 | 1009.4 |
| 20260505225516 | 18 | 203 | 16.1 | 37.0 | 0.00 | 0.00 | 0.00 | 60 | 1009.3 |
| 20260505224517 | 18 | 203 | 19.3 | 32.2 | 0.00 | 0.00 | 0.00 | 59 | 1009.2 |
| 20260505223536 | 19 | 225 | 19.3 | 43.5 | 0.00 | 0.00 | 0.00 | 59 | 1009.1 |
| 20260505222517 | 19 | 203 | 20.9 | 45.1 | 0.00 | 0.00 | 0.00 | 58 | 1009.0 |
| 20260505221516 | 20 | 225 | 16.1 | 40.2 | 0.00 | 0.00 | 0.00 | 58 | 1009.1 |
| 20260505220517 | 20 | 225 | 14.5 | 33.8 | 0.00 | 0.00 | 0.00 | 58 | 1008.9 |
| 20260505215516 | 20 | 203 | 12.9 | 29.0 | 0.00 | 0.00 | 0.00 | 58 | 1009.0 |
| 20260505214517 | 20 | 203 | 14.5 | 33.8 | 0.00 | 0.00 | 0.00 | 58 | 1008.9 |
| 20260505213536 | 20 | 203 | 19.3 | 38.6 | 0.00 | 0.00 | 0.00 | 57 | 1008.8 |
| 20260505212516 | 20 | 203 | 14.5 | 32.2 | 0.00 | 0.00 | 0.00 | 58 | 1008.7 |
| 20260505211516 | 20 | 203 | 17.7 | 38.6 | 0.00 | 0.00 | 0.00 | 59 | 1008.7 |
| 20260505210516 | 20 | 203 | 16.1 | 33.8 | 0.00 | 0.00 | 0.00 | 58 | 1008.6 |
| 20260505205516 | 21 | 203 | 14.5 | 37.0 | 0.00 | 0.00 | 0.00 | 57 | 1008.6 |
| 20260505204516 | 21 | 225 | 11.3 | 33.8 | 0.00 | 0.00 | 0.00 | 57 | 1008.8 |
| 20260505203536 | 21 | 203 | 11.3 | 25.7 | 0.00 | 0.00 | 0.00 | 58 | 1008.7 |
| 20260505202516 | 21 | 203 | 8.0 | 19.3 | 0.00 | 0.00 | 0.00 | 57 | 1008.7 |
| 20260505201536 | 21 | 203 | 12.9 | 25.7 | 0.00 | 0.00 | 0.00 | 57 | 1008.8 |
| 20260505200516 | 21 | 203 | 14.5 | 29.0 | 0.00 | 0.00 | 0.00 | 57 | 1008.8 |
| 20260505195516 | 21 | 203 | 16.1 | 35.4 | 0.00 | 0.00 | 0.00 | 57 | 1008.8 |
| 20260505194536 | 21 | 203 | 14.5 | 32.2 | 0.00 | 0.00 | 0.00 | 57 | 1009.1 |
| 20260505193536 | 21 | 203 | 14.5 | 29.0 | 0.00 | 0.00 | 0.00 | 57 | 1009.1 |
| 20260505192516 | 21 | 203 | 16.1 | 32.2 | 0.00 | 0.00 | 0.00 | 57 | 1009.3 |
| 20260505191516 | 21 | 180 | 12.9 | 24.1 | 0.00 | 0.00 | 0.00 | 58 | 1009.4 |
| 20260505190516 | 21 | 180 | 12.9 | 24.1 | 0.00 | 0.00 | 0.00 | 58 | 1009.6 |
| 20260505185516 | 21 | 180 | 16.1 | 30.6 | 0.00 | 0.00 | 0.00 | 57 | 1009.8 |
| 20260505184536 | 21 | 203 | 14.5 | 33.8 | 0.00 | 0.00 | 0.00 | 57 | 1009.8 |
| 20260505183516 | 21 | 203 | 17.7 | 40.2 | 0.00 | 0.00 | 0.00 | 57 | 1009.9 |
| 20260505182516 | 21 | 203 | 14.5 | 24.1 | 0.00 | 0.00 | 0.00 | 58 | 1009.9 |
| 20260505181516 | 21 | 203 | 11.3 | 24.1 | 0.00 | 0.00 | 0.00 | 58 | 1010.0 |
| 20260505180536 | 21 | 203 | 11.3 | 30.6 | 0.00 | 0.00 | 0.00 | 57 | 1010.3 |
| 20260505175516 | 21 | 180 | 14.5 | 25.7 | 0.00 | 0.00 | 0.00 | 58 | 1010.4 |
| 20260505174516 | 21 | 203 | 14.5 | 27.4 | 0.00 | 0.00 | 0.00 | 57 | 1010.3 |
| 20260505173516 | 22 | 203 | 8.0 | 24.1 | 0.00 | 0.00 | 0.00 | 58 | 1010.3 |
| 20260505172556 | 22 | 180 | 9.7 | 25.7 | 0.00 | 0.00 | 0.00 | 59 | 1010.4 |
| 20260505171516 | 22 | 203 | 14.5 | 30.6 | 0.00 | 0.00 | 0.00 | 55 | 1010.4 |
| 20260505170516 | 22 | 203 | 9.7 | 24.1 | 0.00 | 0.00 | 0.00 | 57 | 1010.4 |
| 20260505165516 | 22 | 180 | 12.9 | 27.4 | 0.00 | 0.00 | 0.00 | 56 | 1010.5 |
| 20260505164516 | 22 | 203 | 11.3 | 20.9 | 0.00 | 0.00 | 0.00 | 55 | 1010.5 |
| 20260505163516 | 22 | 180 | 11.3 | 20.9 | 0.00 | 0.00 | 0.00 | 55 | 1010.8 |
| 20260505162516 | 23 | 180 | 9.7 | 22.5 | 0.00 | 0.00 | 0.00 | 54 | 1010.9 |
| 20260505161516 | 22 | 158 | 6.4 | 20.9 | 0.00 | 0.00 | 0.00 | 55 | 1010.8 |
| 20260505160556 | 22 | 203 | 9.7 | 29.0 | 0.00 | 0.00 | 0.00 | 53 | 1011.1 |
| 20260505152516 | 21 | 225 | 9.7 | 24.1 | 0.00 | 0.00 | 0.00 | 57 | 1011.4 |
| 20260505151516 | 21 | 180 | 9.7 | 19.3 | 0.00 | 0.00 | 0.00 | 58 | 1011.5 |
| 20260505150516 | 21 | 203 | 8.0 | 17.7 | 0.00 | 0.00 | 0.00 | 59 | 1011.8 |
| 20260505140516 | 20 | 203 | 9.7 | 17.7 | 0.00 | 0.00 | 0.00 | 62 | 1011.4 |
| 20260505124515 | 17 | 203 | 6.4 | 14.5 | 0.00 | 0.00 | 0.00 | 70 | 1011.2 |
| 20260505123516 | 16 | 203 | 4.8 | 11.3 | 0.00 | 0.00 | 0.00 | 72 | 1010.9 |
| 20260505122516 | 16 | 203 | 6.4 | 14.5 | 0.00 | 0.00 | 0.00 | 74 | 1011.1 |
| 20260505121516 | 15 | 203 | 6.4 | 12.9 | 0.00 | 0.00 | 0.00 | 76 | 1011.2 |
| 20260505120516 | 15 | 203 | 4.8 | 9.7 | 0.00 | 0.00 | 0.00 | 78 | 1011.3 |
| 20260505115516 | 14 | 203 | 4.8 | 11.3 | 0.00 | 0.00 | 0.00 | 79 | 1011.1 |
| 20260505114516 | 14 | 203 | 6.4 | 16.1 | 0.00 | 0.00 | 0.00 | 80 | 1011.4 |
| 20260505113515 | 13 | 203 | 6.4 | 12.9 | 0.00 | 0.00 | 0.00 | 81 | 1011.3 |
| 20260505112515 | 13 | 225 | 6.4 | 12.9 | 0.00 | 0.00 | 0.00 | 84 | 1011.3 |
| 20260505111516 | 12 | 203 | 6.4 | 12.9 | 0.00 | 0.00 | 0.00 | 85 | 1011.3 |
| 20260505110516 | 12 | 203 | 6.4 | 16.1 | 0.00 | 0.00 | 0.00 | 85 | 1011.3 |
| 20260505101515 | 12 | 203 | 4.8 | 12.9 | 0.00 | 0.00 | 0.00 | 86 | 1010.3 |
| 20260505100515 | 12 | 203 | 6.4 | 14.5 | 0.00 | 0.00 | 0.00 | 86 | 1010.4 |
| 20260505095515 | 12 | 203 | 4.8 | 11.3 | 0.00 | 0.00 | 0.00 | 87 | 1010.1 |
| 20260505094515 | 12 | 203 | 4.8 | 11.3 | 0.00 | 0.00 | 0.00 | 87 | 1010.1 |
| 20260505093515 | 11 | 203 | 4.8 | 9.7 | 0.00 | 0.00 | 0.00 | 87 | 1010.3 |